Aviation Digital Data Service (ADDS)

Output produced by METARs form (1411 UTC 10 August 2022)
found at http://www.aviationweather.gov/metar/data/
 
METAR text: SAEZ 101400Z 03010KT CAVOK 12/05 Q1029 NOSIG RMK PP000
Conditions at: SAEZ (BUENOS AIRES/EZE, AR) observed 1400 UTC 10 August 2022
Temperature: 12.0°C (54°F)
Dewpoint: 5.0°C (41°F) [RH = 62%]
Pressure (altimeter): 30.38 inches Hg (1029.0 mb)
Winds: from the NNE (30 degrees) at 12 MPH (10 knots; 5.1 m/s)
Visibility: 6 or more miles (10+ km)
Ceiling: ceiling and visibility are OK
Clouds: unknown
Weather: no significant weather observed at this time

METAR text: SAEZ 101300Z 03009KT CAVOK 11/06 Q1029 NOSIG RMK PP000
Conditions at: SAEZ (BUENOS AIRES/EZE, AR) observed 1300 UTC 10 August 2022
Temperature: 11.0°C (52°F)
Dewpoint: 6.0°C (43°F) [RH = 71%]
Pressure (altimeter): 30.38 inches Hg (1029.0 mb)
Winds: from the NNE (30 degrees) at 10 MPH (9 knots; 4.6 m/s)
Visibility: 6 or more miles (10+ km)
Ceiling: ceiling and visibility are OK
Clouds: unknown
Weather: no significant weather observed at this time

METAR text: SAEZ 101200Z 05005KT CAVOK 10/07 Q1029 NOSIG RMK PP000
Conditions at: SAEZ (BUENOS AIRES/EZE, AR) observed 1200 UTC 10 August 2022
Temperature: 10.0°C (50°F)
Dewpoint: 7.0°C (45°F) [RH = 82%]
Pressure (altimeter): 30.38 inches Hg (1029.0 mb)
Winds: from the NE (50 degrees) at 6 MPH (5 knots; 2.6 m/s)
Visibility: 6 or more miles (10+ km)
Ceiling: ceiling and visibility are OK
Clouds: unknown
Weather: no significant weather observed at this time

METAR text: SAEZ 101100Z 05005KT 9000 NSC 08/06 Q1029 NOSIG RMK PP000
Conditions at: SAEZ (BUENOS AIRES/EZE, AR) observed 1100 UTC 10 August 2022
Temperature: 8.0°C (46°F)
Dewpoint: 6.0°C (43°F) [RH = 87%]
Pressure (altimeter): 30.38 inches Hg (1029.0 mb)
Winds: from the NE (50 degrees) at 6 MPH (5 knots; 2.6 m/s)
Visibility: 6 miles ( 9 km)
Ceiling: at least 12,000 feet AGL
Clouds: sky clear below 12,000 feet AGL
Weather: no significant weather observed at this time

METAR text: SAEZ 101000Z 04004KT CAVOK 06/04 Q1029 NOSIG RMK PP000
Conditions at: SAEZ (BUENOS AIRES/EZE, AR) observed 1000 UTC 10 August 2022
Temperature: 6.0°C (43°F)
Dewpoint: 4.0°C (39°F) [RH = 87%]
Pressure (altimeter): 30.38 inches Hg (1029.0 mb)
Winds: from the NE (40 degrees) at 5 MPH (4 knots; 2.1 m/s)
Visibility: 6 or more miles (10+ km)
Ceiling: ceiling and visibility are OK
Clouds: unknown
Weather: no significant weather observed at this time

METAR text: SAEZ 100900Z 08003KT 8000 0NSC 05/04 Q1028 NOSIG RMK PP000
Conditions at: SAEZ (BUENOS AIRES/EZE, AR) observed 0900 UTC 10 August 2022
Temperature: 5.0°C (41°F)
Dewpoint: 4.0°C (39°F) [RH = 93%]
Pressure (altimeter): 30.35 inches Hg (1028.0 mb)
Winds: from the E (80 degrees) at 3 MPH (3 knots; 1.5 m/s)
Visibility: 5 miles ( 8 km)
Ceiling: at least 12,000 feet AGL
Clouds: sky clear below 12,000 feet AGL
Weather: no significant weather observed at this time

METAR text: SAEZ 100800Z 00000KT 8000 MIFG NSC 05/04 Q1029 NOSIG RMK PP000
Conditions at: SAEZ (BUENOS AIRES/EZE, AR) observed 0800 UTC 10 August 2022
Temperature: 5.0°C (41°F)
Dewpoint: 4.0°C (39°F) [RH = 93%]
Pressure (altimeter): 30.38 inches Hg (1029.0 mb)
Winds: calm
Visibility: 5 miles ( 8 km)
Ceiling: at least 12,000 feet AGL
Clouds: sky clear below 12,000 feet AGL
Weather: MIFG  (shallow fog)

METAR text: SAEZ 100700Z 09002KT 7000 MIFG NSC 05/05 Q1029 NOSIG RMK PP000
Conditions at: SAEZ (BUENOS AIRES/EZE, AR) observed 0700 UTC 10 August 2022
Temperature: 5.0°C (41°F)
Dewpoint: 5.0°C (41°F) [RH = 100%]
Pressure (altimeter): 30.38 inches Hg (1029.0 mb)
Winds: from the E (90 degrees) at 2 MPH (2 knots; 1.0 m/s)
Visibility: 4 miles ( 7 km)
Ceiling: at least 12,000 feet AGL
Clouds: sky clear below 12,000 feet AGL
Weather: MIFG  (shallow fog)

METAR text: SAEZ 100600Z 10002KT 7000 MIFG NSC 06/05 Q1030 NOSIG RMK PP000
Conditions at: SAEZ (BUENOS AIRES/EZE, AR) observed 0600 UTC 10 August 2022
Temperature: 6.0°C (43°F)
Dewpoint: 5.0°C (41°F) [RH = 93%]
Pressure (altimeter): 30.41 inches Hg (1030.0 mb)
Winds: from the E (100 degrees) at 2 MPH (2 knots; 1.0 m/s)
Visibility: 4 miles ( 7 km)
Ceiling: at least 12,000 feet AGL
Clouds: sky clear below 12,000 feet AGL
Weather: MIFG  (shallow fog)

METAR text: SAEZ 100500Z 09003KT CAVOK 07/05 Q1030 NOSIG RMK PP000
Conditions at: SAEZ (BUENOS AIRES/EZE, AR) observed 0500 UTC 10 August 2022
Temperature: 7.0°C (45°F)
Dewpoint: 5.0°C (41°F) [RH = 87%]
Pressure (altimeter): 30.41 inches Hg (1030.0 mb)
Winds: from the E (90 degrees) at 3 MPH (3 knots; 1.5 m/s)
Visibility: 6 or more miles (10+ km)
Ceiling: ceiling and visibility are OK
Clouds: unknown
Weather: no significant weather observed at this time

METAR text: SAEZ 100400Z 10005KT CAVOK 08/06 Q1030 NOSIG RMK PP000
Conditions at: SAEZ (BUENOS AIRES/EZE, AR) observed 0400 UTC 10 August 2022
Temperature: 8.0°C (46°F)
Dewpoint: 6.0°C (43°F) [RH = 87%]
Pressure (altimeter): 30.41 inches Hg (1030.0 mb)
Winds: from the E (100 degrees) at 6 MPH (5 knots; 2.6 m/s)
Visibility: 6 or more miles (10+ km)
Ceiling: ceiling and visibility are OK
Clouds: unknown
Weather: no significant weather observed at this time

METAR text: SAEZ 100300Z 10004KT CAVOK 09/06 Q1031 NOSIG RMK PP000
Conditions at: SAEZ (BUENOS AIRES/EZE, AR) observed 0300 UTC 10 August 2022
Temperature: 9.0°C (48°F)
Dewpoint: 6.0°C (43°F) [RH = 81%]
Pressure (altimeter): 30.44 inches Hg (1031.0 mb)
Winds: from the E (100 degrees) at 5 MPH (4 knots; 2.1 m/s)
Visibility: 6 or more miles (10+ km)
Ceiling: ceiling and visibility are OK
Clouds: unknown
Weather: no significant weather observed at this time

METAR text: SAEZ 100200Z 11004KT CAVOK 10/06 Q1031 NOSIG RMK PP000
Conditions at: SAEZ (BUENOS AIRES/EZE, AR) observed 0200 UTC 10 August 2022
Temperature: 10.0°C (50°F)
Dewpoint: 6.0°C (43°F) [RH = 76%]
Pressure (altimeter): 30.44 inches Hg (1031.0 mb)
Winds: from the ESE (110 degrees) at 5 MPH (4 knots; 2.1 m/s)
Visibility: 6 or more miles (10+ km)
Ceiling: ceiling and visibility are OK
Clouds: unknown
Weather: no significant weather observed at this time

METAR text: SAEZ 100100Z 09007KT CAVOK 11/06 Q1032 NOSIG RMK PP000
Conditions at: SAEZ (BUENOS AIRES/EZE, AR) observed 0100 UTC 10 August 2022
Temperature: 11.0°C (52°F)
Dewpoint: 6.0°C (43°F) [RH = 71%]
Pressure (altimeter): 30.47 inches Hg (1032.0 mb)
Winds: from the E (90 degrees) at 8 MPH (7 knots; 3.6 m/s)
Visibility: 6 or more miles (10+ km)
Ceiling: ceiling and visibility are OK
Clouds: unknown
Weather: no significant weather observed at this time

METAR text: SAEZ 100000Z 09005KT CAVOK 11/07 Q1031 NOSIG RMK PP000
Conditions at: SAEZ (BUENOS AIRES/EZE, AR) observed 0000 UTC 10 August 2022
Temperature: 11.0°C (52°F)
Dewpoint: 7.0°C (45°F) [RH = 76%]
Pressure (altimeter): 30.44 inches Hg (1031.0 mb)
Winds: from the E (90 degrees) at 6 MPH (5 knots; 2.6 m/s)
Visibility: 6 or more miles (10+ km)
Ceiling: ceiling and visibility are OK
Clouds: unknown
Weather: no significant weather observed at this time

METAR text: SAEZ 092300Z 07006KT CAVOK 12/06 Q1031 NOSIG RMK PP000
Conditions at: SAEZ (BUENOS AIRES/EZE, AR) observed 2300 UTC 09 August 2022
Temperature: 12.0°C (54°F)
Dewpoint: 6.0°C (43°F) [RH = 67%]
Pressure (altimeter): 30.44 inches Hg (1031.0 mb)
Winds: from the ENE (70 degrees) at 7 MPH (6 knots; 3.1 m/s)
Visibility: 6 or more miles (10+ km)
Ceiling: ceiling and visibility are OK
Clouds: unknown
Weather: no significant weather observed at this time

METAR text: SAEZ 092200Z 07007KT CAVOK 12/07 Q1031 NOSIG RMK PP000
Conditions at: SAEZ (BUENOS AIRES/EZE, AR) observed 2200 UTC 09 August 2022
Temperature: 12.0°C (54°F)
Dewpoint: 7.0°C (45°F) [RH = 71%]
Pressure (altimeter): 30.44 inches Hg (1031.0 mb)
Winds: from the ENE (70 degrees) at 8 MPH (7 knots; 3.6 m/s)
Visibility: 6 or more miles (10+ km)
Ceiling: ceiling and visibility are OK
Clouds: unknown
Weather: no significant weather observed at this time

METAR text: SAEZ 092100Z 11006KT 9999 FEW034 BKN050 12/07 Q1031 NOSIG RMK PP000
Conditions at: SAEZ (BUENOS AIRES/EZE, AR) observed 2100 UTC 09 August 2022
Temperature: 12.0°C (54°F)
Dewpoint: 7.0°C (45°F) [RH = 71%]
Pressure (altimeter): 30.44 inches Hg (1031.0 mb)
Winds: from the ESE (110 degrees) at 7 MPH (6 knots; 3.1 m/s)
Visibility: 6 or more miles (10+ km)
Ceiling: 5000 feet AGL
Clouds: few clouds at 3400 feet AGL
broken clouds at 5000 feet AGL
Weather: no significant weather observed at this time

METAR text: SAEZ 092000Z 09006KT 9999 SCT036 BKN050 13/07 Q1031 NOSIG RMK PP000
Conditions at: SAEZ (BUENOS AIRES/EZE, AR) observed 2000 UTC 09 August 2022
Temperature: 13.0°C (55°F)
Dewpoint: 7.0°C (45°F) [RH = 67%]
Pressure (altimeter): 30.44 inches Hg (1031.0 mb)
Winds: from the E (90 degrees) at 7 MPH (6 knots; 3.1 m/s)
Visibility: 6 or more miles (10+ km)
Ceiling: 5000 feet AGL
Clouds: scattered clouds at 3600 feet AGL
broken clouds at 5000 feet AGL
Weather: no significant weather observed at this time

METAR text: SAEZ 091900Z 07002KT 9999 BKN036 BKN100 14/06 Q1030 NOSIG RMK PP000
Conditions at: SAEZ (BUENOS AIRES/EZE, AR) observed 1900 UTC 09 August 2022
Temperature: 14.0°C (57°F)
Dewpoint: 6.0°C (43°F) [RH = 58%]
Pressure (altimeter): 30.41 inches Hg (1030.0 mb)
Winds: from the ENE (70 degrees) at 2 MPH (2 knots; 1.0 m/s)
Visibility: 6 or more miles (10+ km)
Ceiling: 3600 feet AGL
Clouds: broken clouds at 3600 feet AGL
broken clouds at 10000 feet AGL
Weather: no significant weather observed at this time

METAR text: SAEZ 091800Z 09004KT CAVOK 14/07 Q1031 NOSIG RMK PP000
Conditions at: SAEZ (BUENOS AIRES/EZE, AR) observed 1800 UTC 09 August 2022
Temperature: 14.0°C (57°F)
Dewpoint: 7.0°C (45°F) [RH = 63%]
Pressure (altimeter): 30.44 inches Hg (1031.0 mb)
Winds: from the E (90 degrees) at 5 MPH (4 knots; 2.1 m/s)
Visibility: 6 or more miles (10+ km)
Ceiling: ceiling and visibility are OK
Clouds: unknown
Weather: no significant weather observed at this time

METAR text: SAEZ 091700Z 10002KT 9999 SCT026 BKN040 13/08 Q1031 NOSIG RMK PP000
Conditions at: SAEZ (BUENOS AIRES/EZE, AR) observed 1700 UTC 09 August 2022
Temperature: 13.0°C (55°F)
Dewpoint: 8.0°C (46°F) [RH = 72%]
Pressure (altimeter): 30.44 inches Hg (1031.0 mb)
Winds: from the E (100 degrees) at 2 MPH (2 knots; 1.0 m/s)
Visibility: 6 or more miles (10+ km)
Ceiling: 4000 feet AGL
Clouds: scattered clouds at 2600 feet AGL
broken clouds at 4000 feet AGL
Weather: no significant weather observed at this time

METAR text: SAEZ 091600Z 08006KT 9999 SCT017 BKN026 BKN100 13/08 Q1032 NOSIG RMK PP000
Conditions at: SAEZ (BUENOS AIRES/EZE, AR) observed 1600 UTC 09 August 2022
Temperature: 13.0°C (55°F)
Dewpoint: 8.0°C (46°F) [RH = 72%]
Pressure (altimeter): 30.47 inches Hg (1032.0 mb)
Winds: from the E (80 degrees) at 7 MPH (6 knots; 3.1 m/s)
Visibility: 6 or more miles (10+ km)
Ceiling: 2600 feet AGL
Clouds: scattered clouds at 1700 feet AGL
broken clouds at 2600 feet AGL
broken clouds at 10000 feet AGL
Weather: no significant weather observed at this time

METAR text: SAEZ 091500Z 13006KT 9000 OVC010 BKN100 12/09 Q1033 NOSIG RMK PP000
Conditions at: SAEZ (BUENOS AIRES/EZE, AR) observed 1500 UTC 09 August 2022
Temperature: 12.0°C (54°F)
Dewpoint: 9.0°C (48°F) [RH = 82%]
Pressure (altimeter): 30.50 inches Hg (1033.0 mb)
Winds: from the SE (130 degrees) at 7 MPH (6 knots; 3.1 m/s)
Visibility: 6 miles ( 9 km)
Ceiling: 1000 feet AGL
Clouds: overcast cloud deck at 1000 feet AGL
broken clouds at 10000 feet AGL
Weather: no significant weather observed at this time

METAR text: SAEZ 091400Z 14006KT 8000 OVC006 10/09 Q1033 NOSIG RMK PP000
Conditions at: SAEZ (BUENOS AIRES/EZE, AR) observed 1400 UTC 09 August 2022
Temperature: 10.0°C (50°F)
Dewpoint: 9.0°C (48°F) [RH = 93%]
Pressure (altimeter): 30.50 inches Hg (1033.0 mb)
Winds: from the SE (140 degrees) at 7 MPH (6 knots; 3.1 m/s)
Visibility: 5 miles ( 8 km)
Ceiling: 600 feet AGL
Clouds: overcast cloud deck at 600 feet AGL
Weather: no significant weather observed at this time

METAR text: SAEZ 091330Z 15004KT 8000 DZ OVC003 09/09 Q1033 NOSIG RMK PP000
Conditions at: SAEZ (BUENOS AIRES/EZE, AR) observed 1330 UTC 09 August 2022
Temperature: 9.0°C (48°F)
Dewpoint: 9.0°C (48°F) [RH = 100%]
Pressure (altimeter): 30.50 inches Hg (1033.0 mb)
Winds: from the SSE (150 degrees) at 5 MPH (4 knots; 2.1 m/s)
Visibility: 5 miles ( 8 km)
Ceiling: 300 feet AGL
Clouds: overcast cloud deck at 300 feet AGL
Weather: DZ  (moderate drizzle)

METAR text: SAEZ 091300Z 18004KT 5000 DZ BR OVC003 09/09 Q1033 NOSIG RMK PP000
Conditions at: SAEZ (BUENOS AIRES/EZE, AR) observed 1300 UTC 09 August 2022
Temperature: 9.0°C (48°F)
Dewpoint: 9.0°C (48°F) [RH = 100%]
Pressure (altimeter): 30.50 inches Hg (1033.0 mb)
Winds: from the S (180 degrees) at 5 MPH (4 knots; 2.1 m/s)
Visibility: 3 miles ( 5 km)
Ceiling: 300 feet AGL
Clouds: overcast cloud deck at 300 feet AGL
Weather: DZ BR  (moderate drizzle, mist)

METAR text: SAEZ 091245Z 18005KT 5000 DZ BR OVC003 09/08 Q1033 NOSIG RMK PP000
Conditions at: SAEZ (BUENOS AIRES/EZE, AR) observed 1245 UTC 09 August 2022
Temperature: 9.0°C (48°F)
Dewpoint: 8.0°C (46°F) [RH = 93%]
Pressure (altimeter): 30.50 inches Hg (1033.0 mb)
Winds: from the S (180 degrees) at 6 MPH (5 knots; 2.6 m/s)
Visibility: 3 miles ( 5 km)
Ceiling: 300 feet AGL
Clouds: overcast cloud deck at 300 feet AGL
Weather: DZ BR  (moderate drizzle, mist)

METAR text: SAEZ 091220Z 18005KT 8000 OVC003 08/08 Q1033 NOSIG RMK PP000
Conditions at: SAEZ (BUENOS AIRES/EZE, AR) observed 1220 UTC 09 August 2022
Temperature: 8.0°C (46°F)
Dewpoint: 8.0°C (46°F) [RH = 100%]
Pressure (altimeter): 30.50 inches Hg (1033.0 mb)
Winds: from the S (180 degrees) at 6 MPH (5 knots; 2.6 m/s)
Visibility: 5 miles ( 8 km)
Ceiling: 300 feet AGL
Clouds: overcast cloud deck at 300 feet AGL
Weather: no significant weather observed at this time

METAR text: SAEZ 091200Z 18005KT 5000 DZ OVC003 08/08 Q1033 NOSIG RMK PP000
Conditions at: SAEZ (BUENOS AIRES/EZE, AR) observed 1200 UTC 09 August 2022
Temperature: 8.0°C (46°F)
Dewpoint: 8.0°C (46°F) [RH = 100%]
Pressure (altimeter): 30.50 inches Hg (1033.0 mb)
Winds: from the S (180 degrees) at 6 MPH (5 knots; 2.6 m/s)
Visibility: 3 miles ( 5 km)
Ceiling: 300 feet AGL
Clouds: overcast cloud deck at 300 feet AGL
Weather: DZ  (moderate drizzle)

METAR text: SAEZ 091130Z 18004KT 7000 OVC003 08/08 Q1032 NOSIG RMK PP000
Conditions at: SAEZ (BUENOS AIRES/EZE, AR) observed 1130 UTC 09 August 2022
Temperature: 8.0°C (46°F)
Dewpoint: 8.0°C (46°F) [RH = 100%]
Pressure (altimeter): 30.47 inches Hg (1032.0 mb)
Winds: from the S (180 degrees) at 5 MPH (4 knots; 2.1 m/s)
Visibility: 4 miles ( 7 km)
Ceiling: 300 feet AGL
Clouds: overcast cloud deck at 300 feet AGL
Weather: no significant weather observed at this time

METAR text: SAEZ 091100Z 18004KT 8000 OVC003 08/08 Q1032 NOSIG RMK PP000
Conditions at: SAEZ (BUENOS AIRES/EZE, AR) observed 1100 UTC 09 August 2022
Temperature: 8.0°C (46°F)
Dewpoint: 8.0°C (46°F) [RH = 100%]
Pressure (altimeter): 30.47 inches Hg (1032.0 mb)
Winds: from the S (180 degrees) at 5 MPH (4 knots; 2.1 m/s)
Visibility: 5 miles ( 8 km)
Ceiling: 300 feet AGL
Clouds: overcast cloud deck at 300 feet AGL
Weather: no significant weather observed at this time

METAR text: SAEZ 091045Z 20004KT 5000 BR OVC003 08/08 Q1032 RMK PP000
Conditions at: SAEZ (BUENOS AIRES/EZE, AR) observed 1045 UTC 09 August 2022
Temperature: 8.0°C (46°F)
Dewpoint: 8.0°C (46°F) [RH = 100%]
Pressure (altimeter): 30.47 inches Hg (1032.0 mb)
Winds: from the SSW (200 degrees) at 5 MPH (4 knots; 2.1 m/s)
Visibility: 3 miles ( 5 km)
Ceiling: 300 feet AGL
Clouds: overcast cloud deck at 300 feet AGL
Weather: BR  (mist)

METAR text: SAEZ 091030Z 20004KT 2000 BR OVC003 08/08 Q1032 TEMPO 0500 FG OVC002 RMK PP000
Conditions at: SAEZ (BUENOS AIRES/EZE, AR) observed 1030 UTC 09 August 2022
Temperature: 8.0°C (46°F)
Dewpoint: 8.0°C (46°F) [RH = 100%]
Pressure (altimeter): 30.47 inches Hg (1032.0 mb)
Winds: from the SSW (200 degrees) at 5 MPH (4 knots; 2.1 m/s)
Visibility: 1.24 miles (2.00 km)
Ceiling: 300 feet AGL
Clouds: overcast cloud deck at 300 feet AGL
Weather: BR  (mist)

METAR text: SAEZ 091000Z 20002KT 4000 BR OVC003 07/07 Q1031 TEMPO 0500 FG OVC002 RMK PP000
Conditions at: SAEZ (BUENOS AIRES/EZE, AR) observed 1000 UTC 09 August 2022
Temperature: 7.0°C (45°F)
Dewpoint: 7.0°C (45°F) [RH = 100%]
Pressure (altimeter): 30.44 inches Hg (1031.0 mb)
Winds: from the SSW (200 degrees) at 2 MPH (2 knots; 1.0 m/s)
Visibility: 2.49 miles (4.01 km)
Ceiling: 300 feet AGL
Clouds: overcast cloud deck at 300 feet AGL
Weather: BR  (mist)

METAR text: SAEZ 090941Z 16002KT 3000 BR OVC003 08/07 Q1031 TEMPO 0500 FG OVC002
Conditions at: SAEZ (BUENOS AIRES/EZE, AR) observed 0941 UTC 09 August 2022
Temperature: 8.0°C (46°F)
Dewpoint: 7.0°C (45°F) [RH = 93%]
Pressure (altimeter): 30.44 inches Hg (1031.0 mb)
Winds: from the SSE (160 degrees) at 2 MPH (2 knots; 1.0 m/s)
Visibility: 1.86 miles (2.99 km)
Ceiling: 300 feet AGL
Clouds: overcast cloud deck at 300 feet AGL
Weather: BR  (mist)

METAR text: SAEZ 090930Z 14003KT 0800 R11/1800U FG OVC003 08/07 Q1031 TEMPO 0500 FG OVC002
Conditions at: SAEZ (BUENOS AIRES/EZE, AR) observed 0930 UTC 09 August 2022
Temperature: 8.0°C (46°F)
Dewpoint: 7.0°C (45°F) [RH = 93%]
Pressure (altimeter): 30.44 inches Hg (1031.0 mb)
Winds: from the SE (140 degrees) at 3 MPH (3 knots; 1.5 m/s)
Visibility: 0.50 miles (0.80 km)
Ceiling: 300 feet AGL
Clouds: overcast cloud deck at 300 feet AGL
Weather: FG  (fog)

METAR text: SAEZ 090900Z 16003KT 0700 R11/0800N FG OVC002 08/07 Q1030 TEMPO 0500 FG OVC002 RMK PP000
Conditions at: SAEZ (BUENOS AIRES/EZE, AR) observed 0900 UTC 09 August 2022
Temperature: 8.0°C (46°F)
Dewpoint: 7.0°C (45°F) [RH = 93%]
Pressure (altimeter): 30.41 inches Hg (1030.0 mb)
Winds: from the SSE (160 degrees) at 3 MPH (3 knots; 1.5 m/s)
Visibility: 0.43 miles (0.69 km)
Ceiling: 200 feet AGL
Clouds: overcast cloud deck at 200 feet AGL
Weather: FG  (fog)

METAR text: SAEZ 090817Z 14003KT 0800 R11/1300D -DZ FG OVC003 08/08 Q1030 NOSIG
Conditions at: SAEZ (BUENOS AIRES/EZE, AR) observed 0817 UTC 09 August 2022
Temperature: 8.0°C (46°F)
Dewpoint: 8.0°C (46°F) [RH = 100%]
Pressure (altimeter): 30.41 inches Hg (1030.0 mb)
Winds: from the SE (140 degrees) at 3 MPH (3 knots; 1.5 m/s)
Visibility: 0.50 miles (0.80 km)
Ceiling: 300 feet AGL
Clouds: overcast cloud deck at 300 feet AGL
Weather: -DZ FG  (light drizzle, fog)

METAR text: SAEZ 090800Z 12003KT 1500 -DZ BR OVC003 08/07 Q1030 NOSIG RMK PP999
Conditions at: SAEZ (BUENOS AIRES/EZE, AR) observed 0800 UTC 09 August 2022
Temperature: 8.0°C (46°F)
Dewpoint: 7.0°C (45°F) [RH = 93%]
Pressure (altimeter): 30.41 inches Hg (1030.0 mb)
Winds: from the ESE (120 degrees) at 3 MPH (3 knots; 1.5 m/s)
Visibility: 0.93 miles (1.50 km)
Ceiling: 300 feet AGL
Clouds: overcast cloud deck at 300 feet AGL
Weather: -DZ BR  (light drizzle, mist)

METAR text: SAEZ 090700Z 14006KT 4000 -DZ BR OVC003 08/08 Q1029 TEMPO 3000 BR RMK PP999
Conditions at: SAEZ (BUENOS AIRES/EZE, AR) observed 0700 UTC 09 August 2022
Temperature: 8.0°C (46°F)
Dewpoint: 8.0°C (46°F) [RH = 100%]
Pressure (altimeter): 30.38 inches Hg (1029.0 mb)
Winds: from the SE (140 degrees) at 7 MPH (6 knots; 3.1 m/s)
Visibility: 2.49 miles (4.01 km)
Ceiling: 300 feet AGL
Clouds: overcast cloud deck at 300 feet AGL
Weather: -DZ BR  (light drizzle, mist)

METAR text: SAEZ 090638Z 13006KT 5000 -DZ BR OVC003 09/08 Q1029 TEMPO 5000 BR DZ BKN005
Conditions at: SAEZ (BUENOS AIRES/EZE, AR) observed 0638 UTC 09 August 2022
Temperature: 9.0°C (48°F)
Dewpoint: 8.0°C (46°F) [RH = 93%]
Pressure (altimeter): 30.38 inches Hg (1029.0 mb)
Winds: from the SE (130 degrees) at 7 MPH (6 knots; 3.1 m/s)
Visibility: 3 miles ( 5 km)
Ceiling: 300 feet AGL
Clouds: overcast cloud deck at 300 feet AGL
Weather: -DZ BR  (light drizzle, mist)

METAR text: SAEZ 090630Z 13007KT 9999 OVC003 09/08 Q1029 TEMPO 5000 BR DZ BKN005
Conditions at: SAEZ (BUENOS AIRES/EZE, AR) observed 0630 UTC 09 August 2022
Temperature: 9.0°C (48°F)
Dewpoint: 8.0°C (46°F) [RH = 93%]
Pressure (altimeter): 30.38 inches Hg (1029.0 mb)
Winds: from the SE (130 degrees) at 8 MPH (7 knots; 3.6 m/s)
Visibility: 6 or more miles (10+ km)
Ceiling: 300 feet AGL
Clouds: overcast cloud deck at 300 feet AGL
Weather: no significant weather observed at this time

METAR text: SAEZ 090600Z 14006KT 9999 BKN005 09/08 Q1030 TEMPO 5000 BR DZ BKN005 RMK PP000
Conditions at: SAEZ (BUENOS AIRES/EZE, AR) observed 0600 UTC 09 August 2022
Temperature: 9.0°C (48°F)
Dewpoint: 8.0°C (46°F) [RH = 93%]
Pressure (altimeter): 30.41 inches Hg (1030.0 mb)
Winds: from the SE (140 degrees) at 7 MPH (6 knots; 3.1 m/s)
Visibility: 6 or more miles (10+ km)
Ceiling: 500 feet AGL
Clouds: broken clouds at 500 feet AGL
Weather: no significant weather observed at this time

METAR text: SAEZ 090500Z 13006KT CAVOK 09/08 Q1030 TEMPO 6000 -RA BR BKN015 BKN030 OVC045 RMK PP000
Conditions at: SAEZ (BUENOS AIRES/EZE, AR) observed 0500 UTC 09 August 2022
Temperature: 9.0°C (48°F)
Dewpoint: 8.0°C (46°F) [RH = 93%]
Pressure (altimeter): 30.41 inches Hg (1030.0 mb)
Winds: from the SE (130 degrees) at 7 MPH (6 knots; 3.1 m/s)
Visibility: 6 or more miles (10+ km)
Ceiling: ceiling and visibility are OK
Clouds: unknown
Weather: no significant weather observed at this time

METAR text: SAEZ 090400Z 13005KT CAVOK 09/08 Q1030 NOSIG RMK PP000
Conditions at: SAEZ (BUENOS AIRES/EZE, AR) observed 0400 UTC 09 August 2022
Temperature: 9.0°C (48°F)
Dewpoint: 8.0°C (46°F) [RH = 93%]
Pressure (altimeter): 30.41 inches Hg (1030.0 mb)
Winds: from the SE (130 degrees) at 6 MPH (5 knots; 2.6 m/s)
Visibility: 6 or more miles (10+ km)
Ceiling: ceiling and visibility are OK
Clouds: unknown
Weather: no significant weather observed at this time

METAR text: SAEZ 090300Z 15005KT 9999 SCT049 BKN050 10/08 Q1030 NOSIG RMK PP000
Conditions at: SAEZ (BUENOS AIRES/EZE, AR) observed 0300 UTC 09 August 2022
Temperature: 10.0°C (50°F)
Dewpoint: 8.0°C (46°F) [RH = 87%]
Pressure (altimeter): 30.41 inches Hg (1030.0 mb)
Winds: from the SSE (150 degrees) at 6 MPH (5 knots; 2.6 m/s)
Visibility: 6 or more miles (10+ km)
Ceiling: 5000 feet AGL
Clouds: scattered clouds at 4900 feet AGL
broken clouds at 5000 feet AGL
Weather: no significant weather observed at this time

Forecast for: SAEZ (BUENOS AIRES/EZE, AR)
Text: TAF SAEZ 101100Z 1012/1112 05005KT CAVOK TX15/1018Z TN06/1110Z
Forecast period: 1200 to 1700 UTC 10 August 2022
Forecast type: FROM: standard forecast or significant change
Winds: from the NE (50 degrees) at 6 MPH (5 knots; 2.6 m/s)
Visibility: 6 or more miles (10+ km)
Ceiling: unknown
Clouds: missing
Weather: no significant weather forecast for this period
Text: BECMG 1017/1019 36007KT 9999 SCT030
Forecast period: 1700 to 2100 UTC 10 August 2022
Forecast type: BECOMING: Conditions expected to become as follows by 1900 UTC 10 August 2022
Winds: from the N (360 degrees) at 8 MPH (7 knots; 3.6 m/s)
Visibility: 6 or more miles (10+ km)
Ceiling: at least 12,000 feet AGL
Clouds: scattered clouds at 3000 feet AGL
Weather: no significant weather forecast for this period
Text: BECMG 1021/1100 09010KT CAVOK
Forecast period: 2100 UTC 10 August 2022 to 0000 UTC 11 August 2022
Forecast type: BECOMING: Conditions expected to become as follows by 0000 UTC 11 August 2022
Winds: from the E (90 degrees) at 12 MPH (10 knots; 5.1 m/s)
Visibility: 6 or more miles (10+ km)
Ceiling: unknown
Clouds: missing
Weather: NSW  (no significant weather)
Text: BECMG 1100/1103 36006KT
Forecast period: 0000 to 1200 UTC 11 August 2022
Forecast type: BECOMING: Conditions expected to become as follows by 0300 UTC 11 August 2022
Winds: from the N (360 degrees) at 7 MPH (6 knots; 3.1 m/s)
Visibility: 6 or more miles (10+ km)
Ceiling: unknown
Clouds: missing
Weather: NSW  (no significant weather)
Text: PROB30 1109/1112 5000 BR NSC
Forecast period: 0900 to 1200 UTC 11 August 2022
Forecast type: PROBABLE: 30 percent likelihood of the following during this time
Visibility: 3 miles (5 km)
Ceiling: unknown
Clouds: missing
Weather: BR  (mist)